This is the latest recevied weather packets stored in our database for station/object SP9KB-14. If no packets are shown the sender has not sent any weather packets the latest 1 day(s).
| Time | Temp. | Humidity | Pressure | Rain* | Wind** | Luminosity | Snow |
|---|---|---|---|---|---|---|---|
| 1778061837 | 22.22° C | 58% | 1031 hPa | 0 mm | - | - | - |
| 1778061236 | 21.11° C | 59% | 1031 hPa | 0 mm | - | - | - |
| 1778060635 | 21.67° C | 58% | 1031.1 hPa | 0 mm | - | - | - |
| 1778060034 | 22.78° C | 57% | 1031 hPa | 0 mm | - | - | - |
| 1778059433 | 21.67° C | 59% | 1030.8 hPa | 0 mm | - | - | - |
| 1778059132 | 21.67° C | 60% | 1030.6 hPa | 0 mm | - | - | - |
| 1778058831 | 21.67° C | 60% | 1030.7 hPa | 0 mm | - | - | - |
| 1778058531 | 21.67° C | 61% | 1030.7 hPa | 0 mm | - | - | - |
| 1778058230 | 21.67° C | 60% | 1030.8 hPa | 0 mm | - | - | - |
| 1778057930 | 21.11° C | 61% | 1030.8 hPa | 0 mm | - | - | - |
| 1778057629 | 21.11° C | 62% | 1030.6 hPa | 0 mm | - | - | - |
| 1778057028 | 21.11° C | 61% | 1030.6 hPa | 0 mm | - | - | - |
| 1778056427 | 20.56° C | 63% | 1030.6 hPa | 0 mm | - | - | - |
| 1778056126 | 20.56° C | 63% | 1030.3 hPa | 0 mm | - | - | - |
| 1778055525 | 20.56° C | 63% | 1030.4 hPa | 0 mm | - | - | - |
| 1778054924 | 20° C | 65% | 1030.5 hPa | 0 mm | - | - | - |
| 1778054323 | 20° C | 64% | 1030.5 hPa | 0 mm | - | - | - |
| 1778053722 | 19.44° C | 67% | 1030.5 hPa | 0 mm | - | - | - |
| 1778053421 | 19.44° C | 65% | 1030.5 hPa | 0 mm | - | - | - |
| 1778052820 | 19.44° C | 66% | 1030.5 hPa | 0 mm | - | - | - |
| 1778052219 | 18.33° C | 66% | 1030.3 hPa | 0 mm | - | - | - |
| 1778051918 | 18.33° C | 67% | 1030.3 hPa | 0 mm | - | - | - |
| 1778051618 | 18.33° C | 67% | 1030.3 hPa | 0 mm | - | - | - |
| 1778051317 | 18.33° C | 68% | 1030.3 hPa | 0 mm | - | - | - |
| 1778051017 | 17.78° C | 68% | 1030.4 hPa | 0 mm | - | - | - |
* Rain latest hour (hover to see other rain measurements)
** Current wind speed in m/s (hover to see current wind gust speed)